createdAt,value
2018-09-19T00:00:32.743Z,6.23
2018-09-19T00:03:01.264Z,5.70
2018-09-19T00:05:29.950Z,5.83
2018-09-19T00:07:58.440Z,5.80
2018-09-19T00:10:26.949Z,5.43
2018-09-19T00:12:55.445Z,5.33
2018-09-19T00:15:23.919Z,5.60
2018-09-19T00:17:52.411Z,5.40
2018-09-19T00:20:20.971Z,6.40
2018-09-19T00:22:49.453Z,5.60
2018-09-19T00:25:17.938Z,5.70
2018-09-19T00:27:46.447Z,5.30
2018-09-19T00:30:15.009Z,5.30
2018-09-19T00:32:43.494Z,5.67
2018-09-19T00:35:12.004Z,6.30
2018-09-19T00:37:40.535Z,5.77
2018-09-19T00:40:09.648Z,5.53
2018-09-19T00:42:38.173Z,5.10
2018-09-19T00:45:06.668Z,5.50
2018-09-19T00:47:35.192Z,4.80
2018-09-19T00:50:03.761Z,5.03
2018-09-19T00:52:32.245Z,5.13
2018-09-19T00:55:00.691Z,5.33
2018-09-19T00:57:29.161Z,4.47
2018-09-19T00:59:57.675Z,5.43
2018-09-19T01:02:26.233Z,5.03
2018-09-19T01:04:54.750Z,4.53
2018-09-19T01:07:24.110Z,4.97
2018-09-19T01:09:52.628Z,6.03
2018-09-19T01:12:21.112Z,5.93
2018-09-19T01:14:49.681Z,5.53
2018-09-19T01:17:18.282Z,5.53
2018-09-19T01:19:46.861Z,5.23
2018-09-19T01:22:15.413Z,5.93
2018-09-19T01:24:43.857Z,5.57
2018-09-19T01:27:12.346Z,5.43
2018-09-19T01:29:40.878Z,5.57
2018-09-19T01:32:09.479Z,5.37
2018-09-19T01:34:37.956Z,5.60
2018-09-19T01:37:06.590Z,5.50
2018-09-19T01:39:35.176Z,5.87
2018-09-19T01:42:03.725Z,5.13
2018-09-19T01:44:32.454Z,5.70
2018-09-19T01:47:00.933Z,5.63
2018-09-19T01:49:29.441Z,5.53
2018-09-19T01:51:57.951Z,6.10
2018-09-19T01:54:26.448Z,6.17
2018-09-19T01:56:55.272Z,5.40
2018-09-19T01:59:23.858Z,6.00
2018-09-19T02:01:53.134Z,5.73
2018-09-19T02:04:21.657Z,5.57
2018-09-19T02:06:50.198Z,5.60
2018-09-19T02:09:18.705Z,6.30
2018-09-19T02:11:47.239Z,4.83
2018-09-19T02:14:15.737Z,5.43
2018-09-19T02:16:44.262Z,6.40
2018-09-19T02:19:12.798Z,5.90
2018-09-19T02:21:41.291Z,6.10
2018-09-19T02:24:09.741Z,5.57
2018-09-19T02:26:38.248Z,6.37
2018-09-19T02:29:06.729Z,5.90
2018-09-19T02:31:35.241Z,6.30
2018-09-19T02:34:03.767Z,5.87
2018-09-19T02:36:32.237Z,6.60
2018-09-19T02:39:00.740Z,5.53
2018-09-19T02:41:29.415Z,6.10
2018-09-19T02:43:57.951Z,5.60
2018-09-19T02:46:26.468Z,6.13
2018-09-19T02:48:54.952Z,6.37
2018-09-19T02:51:23.514Z,6.57
2018-09-19T02:53:52.025Z,6.03
2018-09-19T02:56:20.543Z,6.30
2018-09-19T02:58:48.973Z,6.10
2018-09-19T03:01:17.504Z,6.63
2018-09-19T03:03:46.073Z,6.33
2018-09-19T03:06:14.574Z,6.47
2018-09-19T03:08:43.099Z,6.10
2018-09-19T03:11:11.637Z,6.20
2018-09-19T03:13:40.143Z,6.13
2018-09-19T03:16:08.663Z,5.07
2018-09-19T03:18:37.151Z,5.80
2018-09-19T03:21:05.810Z,6.00
2018-09-19T03:23:34.272Z,5.87
2018-09-19T03:26:02.886Z,6.13
2018-09-19T03:28:31.403Z,5.93
2018-09-19T03:30:59.864Z,5.63
2018-09-19T03:33:28.420Z,6.13
2018-09-19T03:35:56.975Z,6.40
2018-09-19T03:38:25.434Z,5.60
2018-09-19T03:40:53.962Z,6.40
2018-09-19T03:43:22.660Z,6.33
2018-09-19T03:45:51.193Z,5.93
2018-09-19T03:48:19.737Z,6.27
2018-09-19T03:50:48.232Z,6.17
2018-09-19T03:53:16.748Z,6.30
2018-09-19T03:55:45.276Z,6.10
2018-09-19T03:58:13.848Z,5.70
2018-09-19T04:00:42.485Z,6.30
2018-09-19T04:03:11.150Z,6.37
2018-09-19T04:05:39.700Z,6.10
2018-09-19T04:08:08.470Z,5.63
2018-09-19T04:10:36.979Z,7.03
2018-09-19T04:13:05.522Z,5.50
2018-09-19T04:15:34.444Z,6.30
2018-09-19T04:18:02.967Z,6.10
2018-09-19T04:20:31.455Z,5.80
2018-09-19T04:23:00.124Z,5.93
2018-09-19T04:25:28.607Z,6.57
2018-09-19T04:27:57.229Z,6.03
2018-09-19T04:30:25.697Z,6.17
2018-09-19T04:32:54.326Z,5.90
2018-09-19T04:35:22.805Z,6.60
2018-09-19T04:37:51.386Z,5.23
2018-09-19T04:40:19.925Z,5.57
2018-09-19T04:42:48.447Z,6.93
2018-09-19T04:45:16.974Z,6.67
2018-09-19T04:47:45.417Z,6.13
2018-09-19T04:50:13.994Z,6.53
2018-09-19T04:52:42.475Z,6.07
2018-09-19T04:55:10.979Z,6.20
2018-09-19T04:57:42.689Z,6.00
2018-09-19T05:00:11.240Z,6.47
2018-09-19T05:02:41.590Z,6.63
2018-09-19T05:05:10.251Z,6.07
2018-09-19T05:07:39.377Z,5.80
2018-09-19T05:10:07.929Z,7.80
2018-09-19T05:12:36.565Z,6.43
2018-09-19T05:15:05.131Z,6.83
2018-09-19T05:17:35.497Z,6.40
2018-09-19T05:20:04.140Z,8.17
2018-09-19T05:22:32.823Z,6.80
2018-09-19T05:27:34.480Z,6.00
2018-09-19T05:30:03.296Z,6.50
2018-09-19T05:32:33.996Z,6.53
2018-09-19T05:35:02.771Z,7.03
2018-09-19T05:37:31.493Z,6.87
2018-09-19T05:40:02.297Z,7.20
2018-09-19T05:42:36.533Z,7.17
2018-09-19T05:45:05.470Z,6.53
2018-09-19T05:47:34.798Z,7.03
2018-09-19T05:50:03.439Z,6.50
2018-09-19T05:52:32.183Z,8.17
2018-09-19T05:55:00.960Z,7.10
2018-09-19T05:57:29.673Z,7.10
2018-09-19T05:59:58.434Z,6.57
2018-09-19T06:02:27.018Z,6.30
2018-09-19T06:04:55.924Z,7.43
2018-09-19T06:07:24.548Z,7.17
2018-09-19T06:09:53.273Z,7.60
2018-09-19T06:12:22.209Z,9.43
2018-09-19T06:14:51.085Z,7.30
2018-09-19T06:17:21.430Z,7.57
2018-09-19T06:19:50.904Z,6.70
2018-09-19T06:22:19.612Z,8.10
2018-09-19T06:24:48.538Z,8.53
2018-09-19T06:27:18.308Z,7.57
2018-09-19T06:29:47.300Z,7.60
2018-09-19T06:32:15.921Z,7.50
2018-09-19T06:34:44.615Z,7.60
2018-09-19T06:37:13.226Z,8.30
2018-09-19T06:39:41.922Z,8.27
2018-09-19T06:42:10.615Z,8.47
2018-09-19T06:44:39.514Z,8.30
2018-09-19T06:47:08.177Z,7.53
2018-09-19T06:49:36.966Z,6.47
2018-09-19T06:52:05.772Z,6.63
2018-09-19T06:54:34.409Z,7.23
2018-09-19T06:57:03.003Z,6.00
2018-09-19T06:59:31.744Z,6.40
2018-09-19T07:02:00.433Z,6.93
2018-09-19T07:04:28.996Z,6.83
2018-09-19T07:06:57.671Z,7.37
2018-09-19T07:09:26.360Z,6.40
2018-09-19T07:11:55.015Z,6.00
2018-09-19T07:14:23.650Z,6.17
2018-09-19T07:16:52.460Z,5.10
2018-09-19T07:19:21.206Z,5.97
2018-09-19T07:21:49.795Z,5.83
2018-09-19T07:24:18.426Z,5.40
2018-09-19T07:26:47.052Z,6.07
2018-09-19T07:29:15.732Z,5.77
2018-09-19T07:31:44.445Z,5.30
2018-09-19T07:34:13.037Z,5.83
2018-09-19T07:36:41.548Z,5.37
2018-09-19T07:39:11.680Z,6.13
2018-09-19T07:41:40.280Z,5.77
2018-09-19T07:44:09.755Z,6.40
2018-09-19T07:46:38.271Z,5.90
2018-09-19T07:49:06.756Z,6.30
2018-09-19T07:51:35.251Z,6.10
2018-09-19T07:54:03.773Z,6.00
2018-09-19T07:56:32.400Z,6.50
2018-09-19T07:59:00.894Z,5.23
2018-09-19T08:01:29.452Z,6.43
2018-09-19T08:03:57.947Z,5.67
2018-09-19T08:06:26.438Z,5.97
2018-09-19T08:08:54.975Z,5.67
2018-09-19T08:11:23.523Z,5.15
2018-09-19T08:13:52.139Z,5.95
2018-09-19T08:16:21.653Z,5.12
2018-09-19T08:18:50.441Z,5.33
2018-09-19T08:21:18.912Z,5.25
2018-09-19T08:23:48.323Z,5.15
2018-09-19T08:26:16.887Z,5.28
2018-09-19T08:28:45.440Z,4.53
2018-09-19T08:31:14.011Z,5.00
2018-09-19T08:33:42.536Z,5.15
2018-09-19T08:36:11.032Z,5.20
2018-09-19T08:38:39.576Z,5.15
2018-09-19T08:41:08.117Z,5.10
2018-09-19T08:43:36.608Z,5.10
2018-09-19T08:46:05.178Z,5.28
2018-09-19T08:48:33.700Z,4.75
2018-09-19T08:51:02.294Z,5.12
2018-09-19T08:53:30.802Z,4.92
2018-09-19T08:55:59.400Z,5.05
2018-09-19T08:58:27.932Z,5.03
2018-09-19T09:00:56.525Z,4.75
2018-09-19T09:03:24.993Z,5.15
2018-09-19T09:05:53.493Z,4.70
2018-09-19T09:08:21.964Z,4.78
2018-09-19T09:10:50.495Z,4.33
2018-09-19T09:13:19.055Z,4.53
2018-09-19T09:15:47.548Z,4.87
2018-09-19T09:18:16.085Z,4.20
2018-09-19T09:20:44.583Z,4.50
2018-09-19T09:23:13.067Z,4.42
2018-09-19T09:25:41.533Z,5.10
2018-09-19T09:28:10.418Z,4.30
2018-09-19T09:30:38.927Z,4.40
2018-09-19T09:33:07.725Z,4.60
2018-09-19T09:35:36.519Z,4.40
2018-09-19T09:38:04.960Z,4.72
2018-09-19T09:40:33.580Z,4.33
2018-09-19T09:43:02.004Z,4.40
2018-09-19T09:45:30.493Z,4.35
2018-09-19T09:47:58.925Z,4.55
2018-09-19T09:50:27.503Z,4.10
2018-09-19T09:52:55.959Z,4.67
2018-09-19T09:55:24.464Z,4.60
2018-09-19T09:57:52.955Z,4.33
2018-09-19T10:00:26.707Z,4.70
2018-09-19T10:02:55.209Z,4.20
2018-09-19T10:05:23.786Z,4.50
2018-09-19T10:07:52.493Z,4.45
2018-09-19T10:10:21.017Z,3.95
2018-09-19T10:12:49.612Z,4.33
2018-09-19T10:15:18.214Z,4.42
2018-09-19T10:17:46.816Z,4.58
2018-09-19T10:20:15.434Z,4.72
2018-09-19T10:22:43.982Z,4.60
2018-09-19T10:25:12.598Z,4.58
2018-09-19T10:27:41.231Z,4.45
2018-09-19T10:30:09.833Z,4.62
2018-09-19T10:32:38.495Z,4.55
2018-09-19T10:35:07.200Z,4.47
2018-09-19T10:37:35.741Z,4.10
2018-09-19T10:40:04.478Z,4.28
2018-09-19T10:42:33.055Z,4.60
2018-09-19T10:45:01.601Z,4.60
2018-09-19T10:47:31.485Z,4.53
2018-09-19T10:50:00.076Z,4.30
2018-09-19T10:52:28.687Z,4.35
2018-09-19T10:54:57.321Z,4.50
2018-09-19T10:57:25.899Z,4.83
2018-09-19T10:59:54.403Z,4.55
2018-09-19T11:02:22.952Z,4.65
2018-09-19T11:04:51.463Z,4.58
2018-09-19T11:07:20.028Z,4.17
2018-09-19T11:09:48.859Z,4.17
2018-09-19T11:12:17.478Z,4.45
2018-09-19T11:14:46.124Z,4.40
2018-09-19T11:17:14.745Z,4.08
2018-09-19T11:19:43.341Z,4.35
2018-09-19T11:22:11.924Z,4.33
2018-09-19T11:24:40.507Z,4.30
2018-09-19T11:27:09.864Z,3.95
2018-09-19T11:29:38.512Z,3.80
2018-09-19T11:32:07.036Z,3.95
2018-09-19T11:34:35.593Z,3.40
2018-09-19T12:16:40.371Z,4.22
2018-09-19T12:19:09.141Z,3.50
2018-09-19T12:21:37.927Z,4.20
2018-09-19T12:24:06.531Z,3.85
2018-09-19T12:26:35.496Z,3.15
2018-09-19T12:29:04.299Z,3.52
2018-09-19T12:31:33.008Z,3.67
2018-09-19T12:34:01.828Z,4.15
2018-09-19T12:36:30.627Z,3.50
2018-09-19T12:38:59.472Z,4.62
2018-09-19T12:41:28.024Z,4.17
2018-09-19T12:43:57.026Z,3.92
2018-09-19T12:46:25.854Z,3.47
2018-09-19T12:48:54.959Z,3.85
2018-09-19T12:51:23.944Z,4.17
2018-09-19T12:53:52.829Z,4.00
2018-09-19T12:56:22.350Z,3.95
2018-09-19T12:58:51.168Z,4.37
2018-09-19T13:01:20.113Z,4.58
2018-09-19T13:03:48.857Z,4.37
2018-09-19T13:06:17.799Z,4.33
2018-09-19T13:08:46.655Z,4.10
2018-09-19T13:11:15.421Z,4.42
2018-09-19T13:13:44.278Z,4.65
2018-09-19T13:16:12.985Z,4.70
2018-09-19T13:18:41.753Z,4.85
2018-09-19T13:21:10.605Z,4.55
2018-09-19T13:23:39.324Z,4.28
2018-09-19T13:26:08.111Z,4.35
2018-09-19T13:28:36.865Z,4.58
2018-09-19T13:31:05.723Z,4.33
2018-09-19T13:33:34.526Z,4.65
2018-09-19T13:36:03.256Z,3.87
2018-09-19T13:38:32.006Z,4.10
2018-09-19T13:41:00.787Z,3.70
2018-09-19T13:43:29.570Z,3.90
2018-09-19T13:45:58.356Z,4.25
2018-09-19T13:48:27.397Z,3.90
2018-09-19T13:51:06.227Z,3.98
2018-09-19T13:53:35.220Z,4.60
2018-09-19T13:56:03.904Z,4.78
2018-09-19T13:58:32.553Z,4.42
2018-09-19T14:01:01.278Z,4.75
2018-09-19T14:03:29.928Z,4.75
2018-09-19T14:05:58.769Z,3.90
2018-09-19T14:08:27.413Z,4.25
2018-09-19T14:10:55.950Z,4.67
2018-09-19T14:13:24.614Z,3.85
2018-09-19T14:15:53.376Z,4.20
2018-09-19T14:18:22.044Z,4.28
2018-09-19T14:20:50.666Z,4.10
2018-09-19T14:23:19.365Z,3.87
2018-09-19T14:25:48.068Z,4.47
2018-09-19T14:28:16.788Z,4.65
2018-09-19T14:30:45.688Z,4.63
2018-09-19T14:33:14.492Z,4.40
2018-09-19T14:35:43.352Z,4.43
2018-09-19T14:38:12.788Z,4.42
2018-09-19T14:40:41.455Z,4.47
2018-09-19T14:43:10.173Z,4.20
2018-09-19T14:45:39.179Z,4.10
2018-09-19T14:48:07.644Z,3.90
2018-09-19T14:50:36.264Z,4.57
2018-09-19T14:53:05.082Z,4.43
2018-09-19T14:55:34.621Z,4.40
2018-09-19T14:58:03.345Z,4.20
2018-09-19T15:00:32.020Z,4.20
2018-09-19T15:03:00.622Z,5.47
2018-09-19T15:05:29.601Z,3.93
2018-09-19T15:07:58.526Z,4.40
2018-09-19T15:10:27.319Z,4.83
2018-09-19T15:12:56.373Z,5.30
2018-09-19T15:15:25.140Z,4.37
2018-09-19T15:17:53.896Z,4.33
2018-09-19T15:20:22.909Z,4.30
2018-09-19T15:22:51.661Z,4.00
2018-09-19T15:25:20.269Z,4.80
2018-09-19T15:27:49.150Z,4.40
2018-09-19T15:30:18.069Z,3.70
2018-09-19T15:32:46.765Z,4.47
2018-09-19T15:35:15.446Z,5.43
2018-09-19T15:37:44.184Z,4.87
2018-09-19T15:40:12.908Z,4.50
2018-09-19T15:42:41.712Z,3.97
2018-09-19T15:45:10.566Z,4.70
2018-09-19T15:47:39.275Z,3.90
2018-09-19T15:50:08.174Z,4.50
2018-09-19T15:52:36.825Z,5.83
2018-09-19T15:55:05.581Z,4.50
2018-09-19T15:57:34.475Z,4.20
2018-09-19T16:00:03.376Z,4.57
2018-09-19T16:02:32.077Z,3.83
2018-09-19T16:05:00.686Z,5.73
2018-09-19T16:07:29.461Z,12.37
2018-09-19T16:09:58.177Z,6.83
2018-09-19T16:12:26.797Z,12.07
2018-09-19T16:14:55.443Z,12.80
2018-09-19T16:17:24.065Z,6.00
2018-09-19T16:19:52.705Z,12.27
2018-09-19T16:22:21.799Z,15.20
2018-09-19T16:24:50.520Z,5.63
2018-09-19T16:27:19.210Z,9.13
2018-09-19T16:29:48.010Z,8.17
2018-09-19T17:16:03.692Z,4.40
2018-09-19T17:18:32.355Z,4.10
2018-09-19T17:21:01.251Z,4.47
2018-09-19T17:23:30.017Z,4.53
2018-09-19T17:25:58.751Z,5.03
2018-09-19T17:28:27.241Z,4.73
2018-09-19T17:30:55.896Z,4.80
2018-09-19T17:33:24.594Z,4.70
2018-09-19T17:35:53.368Z,4.23
2018-09-19T17:38:21.984Z,5.73
2018-09-19T17:40:50.563Z,6.00
2018-09-19T17:43:19.189Z,4.93
2018-09-19T17:45:47.934Z,5.20
2018-09-19T17:48:16.516Z,4.97
2018-09-19T17:50:45.172Z,5.43
2018-09-19T17:53:13.808Z,4.77
2018-09-19T17:55:42.400Z,4.60
2018-09-19T17:58:10.990Z,5.33
2018-09-19T18:00:39.606Z,4.83
2018-09-19T18:03:08.258Z,4.67
2018-09-19T18:05:36.829Z,5.30
2018-09-19T18:08:05.414Z,4.63
2018-09-19T18:10:34.036Z,5.10
2018-09-19T18:13:02.588Z,5.10
2018-09-19T18:15:31.141Z,5.87
2018-09-19T18:17:59.668Z,6.60
2018-09-19T18:20:28.448Z,6.70
2018-09-19T18:22:56.967Z,4.90
2018-09-19T18:25:25.629Z,5.70
2018-09-19T18:27:54.226Z,6.13
2018-09-19T18:30:22.737Z,5.87
2018-09-19T18:32:51.234Z,5.93
2018-09-19T18:35:19.753Z,5.43
2018-09-19T18:37:48.328Z,6.60
2018-09-19T18:40:17.409Z,5.43
2018-09-19T18:42:46.025Z,5.60
2018-09-19T18:45:14.618Z,4.63
2018-09-19T18:47:43.367Z,4.40
2018-09-19T18:50:13.346Z,4.87
2018-09-19T18:52:41.852Z,4.67
2018-09-19T18:55:10.380Z,4.47
2018-09-19T18:57:38.906Z,4.30
2018-09-19T19:00:07.473Z,4.47
2018-09-19T19:02:35.943Z,4.83
2018-09-19T19:05:04.461Z,4.50
2018-09-19T19:07:33.022Z,4.73
2018-09-19T19:10:01.622Z,4.70
2018-09-19T19:12:30.073Z,4.47
2018-09-19T19:14:58.509Z,4.80
2018-09-19T19:17:27.069Z,4.20
2018-09-19T19:19:55.543Z,4.70
2018-09-19T19:22:24.065Z,3.93
2018-09-19T19:24:52.556Z,4.13
2018-09-19T19:27:20.986Z,4.60
2018-09-19T19:29:49.478Z,4.77
2018-09-19T19:32:17.980Z,4.50
2018-09-19T19:34:46.450Z,5.27
2018-09-19T19:37:14.936Z,5.13
2018-09-19T19:39:43.411Z,4.40
2018-09-19T19:42:11.934Z,4.30
2018-09-19T19:44:40.501Z,4.70
2018-09-19T19:47:09.107Z,4.00
2018-09-19T19:49:37.634Z,4.80
2018-09-19T19:52:06.197Z,7.17
2018-09-19T19:54:34.748Z,4.73
2018-09-19T19:57:03.316Z,6.43
2018-09-19T19:59:31.969Z,5.20
2018-09-19T20:02:00.673Z,6.17
2018-09-19T20:04:29.465Z,5.23
2018-09-19T20:06:58.086Z,4.80
2018-09-19T20:09:26.661Z,5.03
2018-09-19T20:11:55.317Z,5.73
2018-09-19T20:14:24.079Z,5.13
2018-09-19T20:16:52.803Z,5.03
2018-09-19T20:19:21.437Z,5.80
2018-09-19T20:21:50.221Z,5.93
2018-09-19T20:24:18.958Z,6.07
2018-09-19T20:26:47.780Z,5.90
2018-09-19T20:29:16.444Z,5.90
2018-09-19T20:31:45.204Z,5.73
2018-09-19T20:34:13.722Z,6.40
2018-09-19T20:36:42.302Z,6.47
2018-09-19T20:39:11.566Z,5.43
2018-09-19T20:41:40.154Z,5.63
2018-09-19T20:44:08.852Z,5.77
2018-09-19T20:46:37.500Z,5.70
2018-09-19T20:49:06.101Z,7.13
2018-09-19T20:51:34.691Z,5.50
2018-09-19T20:54:03.348Z,5.97
2018-09-19T20:56:32.030Z,4.50
2018-09-19T20:59:00.661Z,5.87
2018-09-19T21:01:29.397Z,6.47
2018-09-19T21:03:57.871Z,5.27
2018-09-19T21:06:26.503Z,5.17
2018-09-19T21:08:55.130Z,5.80
2018-09-19T21:11:23.780Z,5.87
2018-09-19T21:13:52.427Z,4.80
2018-09-19T21:16:21.074Z,5.00
2018-09-19T21:18:49.789Z,5.20
2018-09-19T21:21:18.422Z,5.43
2018-09-19T21:23:47.008Z,5.47
2018-09-19T21:26:15.772Z,6.03
2018-09-19T21:28:44.404Z,5.53
2018-09-19T21:31:13.027Z,5.60
2018-09-19T21:33:41.646Z,5.63
2018-09-19T21:36:10.276Z,4.97
2018-09-19T21:38:38.896Z,4.63
2018-09-19T21:41:07.712Z,5.77
2018-09-19T21:43:36.527Z,5.20
2018-09-19T21:46:05.205Z,5.53
2018-09-19T21:48:33.898Z,5.53
2018-09-19T21:51:02.567Z,4.90
2018-09-19T21:53:31.257Z,5.43
2018-09-19T21:56:00.061Z,5.00
2018-09-19T21:58:28.770Z,5.77
2018-09-19T22:01:02.713Z,4.97
2018-09-19T22:03:31.404Z,5.63
2018-09-19T22:06:00.059Z,5.50
2018-09-19T22:08:28.782Z,5.23
2018-09-19T22:10:57.342Z,5.07
2018-09-19T22:13:25.950Z,5.80
2018-09-19T22:15:54.608Z,5.77
2018-09-19T22:18:23.443Z,5.70
2018-09-19T22:20:52.147Z,5.80
2018-09-19T22:23:20.770Z,5.77
2018-09-19T22:25:49.293Z,4.50
2018-09-19T22:28:17.923Z,4.90
2018-09-19T22:30:46.644Z,5.30
2018-09-19T22:33:15.234Z,5.57
2018-09-19T22:35:43.949Z,5.33
2018-09-19T22:38:12.658Z,5.57
2018-09-19T22:40:41.278Z,5.90
2018-09-19T22:43:09.943Z,5.03
2018-09-19T22:45:38.556Z,5.93
2018-09-19T22:48:07.242Z,5.60
2018-09-19T22:50:35.808Z,5.30
2018-09-19T22:53:04.462Z,5.53
2018-09-19T22:55:33.190Z,5.03
2018-09-19T22:58:01.772Z,4.40
2018-09-19T23:00:30.371Z,5.60
2018-09-19T23:02:59.014Z,5.53
2018-09-19T23:05:27.675Z,5.87
2018-09-19T23:07:56.406Z,5.40
2018-09-19T23:10:25.036Z,5.20
2018-09-19T23:12:53.664Z,5.57
2018-09-19T23:15:22.238Z,4.93
2018-09-19T23:17:50.786Z,4.83
2018-09-19T23:20:19.371Z,5.63
2018-09-19T23:22:47.985Z,5.43
2018-09-19T23:25:16.602Z,5.00
2018-09-19T23:27:45.208Z,5.03
2018-09-19T23:30:13.815Z,5.60
2018-09-19T23:32:42.433Z,5.30
2018-09-19T23:35:11.218Z,4.87
2018-09-19T23:37:39.805Z,5.10
2018-09-19T23:40:08.527Z,5.57
2018-09-19T23:42:37.089Z,5.40
2018-09-19T23:45:06.323Z,5.97
2018-09-19T23:47:34.994Z,4.60
2018-09-19T23:50:03.633Z,5.03
2018-09-19T23:52:32.263Z,5.50
2018-09-19T23:55:00.871Z,5.30
2018-09-19T23:57:29.496Z,5.40
2018-09-19T23:59:58.089Z,5.23
